Aumsville, Oregon
Current Conditions -  °F | °C
As of 6:56 AM on Monday 22 Dec 2014 (Local Time) from KSLE Reporting Station
Overcast Overcast  
Wind Chill: 50°   Ceiling: 12000
Heat Index: 50°   Visibility: 10mi
Dew Point: 48°   Wind: 0mph
Humidity: 93%   Direction: NA
Pressure: 30.31"   Gusts: NA
Location:  44.84°N, 122.87°W
Report Text: KSLE 221456Z 00000KT 10SM FEW022 SCT060 OVC120 10/09 A3031 RMK AO2 SLP264 T01000089 51016
Loading
Personal Weather Stations






























Interactive Weather Map New forecast layout! Learn more

10-Day Weather Forecast

Advertisements
Track Severe Weather on mobile